sensor_id;sensor_type;location;lat;lon;timestamp;pressure;altitude;pressure_sealevel;temperature
40199;BMP280;25906;43.536;26.068;2023-09-19T00:02:10;99297.94;;;16.87
40199;BMP280;25906;43.536;26.068;2023-09-19T00:04:56;99290.03;;;16.84
40199;BMP280;25906;43.536;26.068;2023-09-19T00:07:41;99286.63;;;16.83
40199;BMP280;25906;43.536;26.068;2023-09-19T00:10:27;99286.22;;;16.76
40199;BMP280;25906;43.536;26.068;2023-09-19T00:13:16;99292.47;;;16.73
40199;BMP280;25906;43.536;26.068;2023-09-19T00:16:01;99287.41;;;16.75
40199;BMP280;25906;43.536;26.068;2023-09-19T00:18:52;99285.31;;;16.79
40199;BMP280;25906;43.536;26.068;2023-09-19T00:21:38;99286.22;;;16.76
40199;BMP280;25906;43.536;26.068;2023-09-19T00:24:25;99276.28;;;16.58
40199;BMP280;25906;43.536;26.068;2023-09-19T00:27:13;99278.84;;;16.61
40199;BMP280;25906;43.536;26.068;2023-09-19T00:29:58;99267.88;;;16.50
40199;BMP280;25906;43.536;26.068;2023-09-19T00:32:43;99268.16;;;16.52
40199;BMP280;25906;43.536;26.068;2023-09-19T00:35:29;99264.31;;;16.44
40199;BMP280;25906;43.536;26.068;2023-09-19T00:38:14;99261.94;;;16.37
40199;BMP280;25906;43.536;26.068;2023-09-19T00:41:06;99269.97;;;16.37
40199;BMP280;25906;43.536;26.068;2023-09-19T00:43:52;99263.44;;;16.38
40199;BMP280;25906;43.536;26.068;2023-09-19T00:46:37;99257.78;;;16.36
40199;BMP280;25906;43.536;26.068;2023-09-19T00:49:22;99262.25;;;16.39
40199;BMP280;25906;43.536;26.068;2023-09-19T00:52:08;99269.69;;;16.35
40199;BMP280;25906;43.536;26.068;2023-09-19T00:54:55;99269.84;;;16.41
40199;BMP280;25906;43.536;26.068;2023-09-19T00:57:42;99261.94;;;16.46
40199;BMP280;25906;43.536;26.068;2023-09-19T01:00:28;99263.41;;;16.47
40199;BMP280;25906;43.536;26.068;2023-09-19T01:03:14;99269.50;;;16.48
40199;BMP280;25906;43.536;26.068;2023-09-19T01:05:59;99265.69;;;16.31
40199;BMP280;25906;43.536;26.068;2023-09-19T01:08:45;99262.84;;;16.25
40199;BMP280;25906;43.536;26.068;2023-09-19T01:11:40;99269.53;;;16.30
40199;BMP280;25906;43.536;26.068;2023-09-19T01:17:34;99263.88;;;16.28
40199;BMP280;25906;43.536;26.068;2023-09-19T01:26:11;99251.75;;;15.99
40199;BMP280;25906;43.536;26.068;2023-09-19T01:32:03;99248.59;;;16.10
40199;BMP280;25906;43.536;26.068;2023-09-19T01:34:53;99240.34;;;15.99
40199;BMP280;25906;43.536;26.068;2023-09-19T01:37:39;99243.72;;;15.99
40199;BMP280;25906;43.536;26.068;2023-09-19T01:40:28;99241.81;;;16.00
40199;BMP280;25906;43.536;26.068;2023-09-19T01:43:20;99233.63;;;15.94
40199;BMP280;25906;43.536;26.068;2023-09-19T01:46:14;99235.59;;;15.85
40199;BMP280;25906;43.536;26.068;2023-09-19T01:49:20;99234.69;;;15.88
40199;BMP280;25906;43.536;26.068;2023-09-19T01:52:11;99237.97;;;15.83
40199;BMP280;25906;43.536;26.068;2023-09-19T01:55:02;99235.75;;;15.72
40199;BMP280;25906;43.536;26.068;2023-09-19T01:58:03;99239.44;;;15.75
40199;BMP280;25906;43.536;26.068;2023-09-19T02:00:49;99244.13;;;15.61
40199;BMP280;25906;43.536;26.068;2023-09-19T02:03:39;99236.63;;;15.69
40199;BMP280;25906;43.536;26.068;2023-09-19T02:06:25;99235.56;;;15.67
40199;BMP280;25906;43.536;26.068;2023-09-19T02:09:12;99237.06;;;15.68
40199;BMP280;25906;43.536;26.068;2023-09-19T02:11:57;99239.72;;;15.68
40199;BMP280;25906;43.536;26.068;2023-09-19T02:14:44;99238.69;;;15.65
40199;BMP280;25906;43.536;26.068;2023-09-19T02:17:29;99231.72;;;15.68
40199;BMP280;25906;43.536;26.068;2023-09-19T02:20:16;99234.06;;;15.56
40199;BMP280;25906;43.536;26.068;2023-09-19T02:23:01;99228.16;;;15.43
40199;BMP280;25906;43.536;26.068;2023-09-19T02:25:54;99223.09;;;15.36
40199;BMP280;25906;43.536;26.068;2023-09-19T02:28:39;99219.50;;;15.39
40199;BMP280;25906;43.536;26.068;2023-09-19T02:31:24;99219.06;;;15.41
40199;BMP280;25906;43.536;26.068;2023-09-19T02:34:10;99220.25;;;15.40
40199;BMP280;25906;43.536;26.068;2023-09-19T02:36:55;99217.75;;;15.36
40199;BMP280;25906;43.536;26.068;2023-09-19T02:39:41;99215.34;;;15.29
40199;BMP280;25906;43.536;26.068;2023-09-19T02:42:26;99205.44;;;15.21
40199;BMP280;25906;43.536;26.068;2023-09-19T02:45:12;99206.72;;;15.16
40199;BMP280;25906;43.536;26.068;2023-09-19T02:47:57;99209.41;;;15.25
40199;BMP280;25906;43.536;26.068;2023-09-19T02:50:43;99206.41;;;15.14
40199;BMP280;25906;43.536;26.068;2023-09-19T02:53:29;99211.94;;;15.20
40199;BMP280;25906;43.536;26.068;2023-09-19T02:56:16;99202.53;;;15.06
40199;BMP280;25906;43.536;26.068;2023-09-19T02:59:03;99204.94;;;15.13
40199;BMP280;25906;43.536;26.068;2023-09-19T03:01:49;99211.03;;;15.14
40199;BMP280;25906;43.536;26.068;2023-09-19T03:04:34;99201.25;;;15.11
40199;BMP280;25906;43.536;26.068;2023-09-19T03:07:20;99202.84;;;15.08
40199;BMP280;25906;43.536;26.068;2023-09-19T03:10:06;99193.81;;;15.05
40199;BMP280;25906;43.536;26.068;2023-09-19T03:12:52;99192.50;;;15.10
40199;BMP280;25906;43.536;26.068;2023-09-19T03:15:40;99194.09;;;14.98
40199;BMP280;25906;43.536;26.068;2023-09-19T03:18:26;99194.09;;;14.98
40199;BMP280;25906;43.536;26.068;2023-09-19T03:21:11;99194.53;;;15.06
40199;BMP280;25906;43.536;26.068;2023-09-19T03:23:57;99207.31;;;15.11
40199;BMP280;25906;43.536;26.068;2023-09-19T03:26:42;99209.66;;;15.09
40199;BMP280;25906;43.536;26.068;2023-09-19T03:29:28;99209.81;;;15.15
40199;BMP280;25906;43.536;26.068;2023-09-19T03:32:13;99209.09;;;15.23
40199;BMP280;25906;43.536;26.068;2023-09-19T03:34:58;99215.34;;;15.20
40199;BMP280;25906;43.536;26.068;2023-09-19T03:37:44;99214.16;;;15.21
40199;BMP280;25906;43.536;26.068;2023-09-19T03:40:29;99222.75;;;15.25
40199;BMP280;25906;43.536;26.068;2023-09-19T03:43:15;99219.03;;;15.14
40199;BMP280;25906;43.536;26.068;2023-09-19T03:46:01;99217.91;;;14.93
40199;BMP280;25906;43.536;26.068;2023-09-19T03:48:48;99216.41;;;14.61
40199;BMP280;25906;43.536;26.068;2023-09-19T03:51:33;99209.31;;;14.58
40199;BMP280;25906;43.536;26.068;2023-09-19T03:54:19;99210.50;;;14.57
40199;BMP280;25906;43.536;26.068;2023-09-19T03:57:04;99207.84;;;14.66
40199;BMP280;25906;43.536;26.068;2023-09-19T03:59:50;99218.25;;;14.64
40199;BMP280;25906;43.536;26.068;2023-09-19T04:02:38;99214.25;;;14.69
40199;BMP280;25906;43.536;26.068;2023-09-19T04:05:24;99216.84;;;14.60
40199;BMP280;25906;43.536;26.068;2023-09-19T04:08:09;99225.78;;;14.66
40199;BMP280;25906;43.536;26.068;2023-09-19T04:10:55;99224.72;;;14.63
40199;BMP280;25906;43.536;26.068;2023-09-19T04:13:41;99235.91;;;14.49
40199;BMP280;25906;43.536;26.068;2023-09-19T04:16:27;99235.22;;;14.58
40199;BMP280;25906;43.536;26.068;2023-09-19T04:19:12;99248.22;;;14.55
40199;BMP280;25906;43.536;26.068;2023-09-19T04:21:59;99249.84;;;14.53
40199;BMP280;25906;43.536;26.068;2023-09-19T04:24:44;99245.94;;;14.45
40199;BMP280;25906;43.536;26.068;2023-09-19T04:27:30;99246.50;;;14.40
40199;BMP280;25906;43.536;26.068;2023-09-19T04:30:15;99241.91;;;14.40
40199;BMP280;25906;43.536;26.068;2023-09-19T04:33:01;99255.16;;;14.31
40199;BMP280;25906;43.536;26.068;2023-09-19T04:35:49;99246.03;;;14.20
40199;BMP280;25906;43.536;26.068;2023-09-19T04:38:34;99243.00;;;14.30
40199;BMP280;25906;43.536;26.068;2023-09-19T04:41:19;99240.19;;;14.12
40199;BMP280;25906;43.536;26.068;2023-09-19T04:44:05;99234.03;;;14.15
40199;BMP280;25906;43.536;26.068;2023-09-19T04:46:50;99225.72;;;14.13
40199;BMP280;25906;43.536;26.068;2023-09-19T04:49:36;99220.72;;;14.15
40199;BMP280;25906;43.536;26.068;2023-09-19T04:52:21;99219.84;;;13.96
40199;BMP280;25906;43.536;26.068;2023-09-19T04:55:06;99226.84;;;14.25
40199;BMP280;25906;43.536;26.068;2023-09-19T04:57:52;99226.47;;;14.35
40199;BMP280;25906;43.536;26.068;2023-09-19T05:00:37;99219.72;;;14.43
40199;BMP280;25906;43.536;26.068;2023-09-19T05:03:23;99217.53;;;14.51
40199;BMP280;25906;43.536;26.068;2023-09-19T05:06:08;99215.38;;;14.59
40199;BMP280;25906;43.536;26.068;2023-09-19T05:08:54;99211.03;;;14.74
40199;BMP280;25906;43.536;26.068;2023-09-19T05:11:39;99213.09;;;14.79
40199;BMP280;25906;43.536;26.068;2023-09-19T05:14:24;99216.16;;;14.99
40199;BMP280;25906;43.536;26.068;2023-09-19T05:17:10;99218.44;;;15.19
40199;BMP280;25906;43.536;26.068;2023-09-19T05:19:55;99217.75;;;15.27
40199;BMP280;25906;43.536;26.068;2023-09-19T05:22:41;99210.31;;;15.40
40199;BMP280;25906;43.536;26.068;2023-09-19T05:25:26;99203.09;;;15.50
40199;BMP280;25906;43.536;26.068;2023-09-19T05:28:14;99204.59;;;15.60
40199;BMP280;25906;43.536;26.068;2023-09-19T05:31:00;99200.75;;;15.61
40199;BMP280;25906;43.536;26.068;2023-09-19T05:33:47;99204.13;;;15.80
40199;BMP280;25906;43.536;26.068;2023-09-19T05:36:32;99205.03;;;15.86
40199;BMP280;25906;43.536;26.068;2023-09-19T05:39:18;99205.78;;;16.04
40199;BMP280;25906;43.536;26.068;2023-09-19T05:42:04;99209.16;;;16.05
40199;BMP280;25906;43.536;26.068;2023-09-19T05:44:49;99194.19;;;16.17
40199;BMP280;25906;43.536;26.068;2023-09-19T05:47:35;99211.22;;;16.28
40199;BMP280;25906;43.536;26.068;2023-09-19T05:50:20;99204.22;;;16.40
40199;BMP280;25906;43.536;26.068;2023-09-19T05:53:05;99211.19;;;16.46
40199;BMP280;25906;43.536;26.068;2023-09-19T05:55:51;99202.94;;;16.59
40199;BMP280;25906;43.536;26.068;2023-09-19T05:58:38;99203.53;;;16.72
40199;BMP280;25906;43.536;26.068;2023-09-19T06:01:24;99191.09;;;16.93
40199;BMP280;25906;43.536;26.068;2023-09-19T06:04:09;99193.72;;;17.02
40199;BMP280;25906;43.536;26.068;2023-09-19T06:06:54;99194.22;;;17.15
40199;BMP280;25906;43.536;26.068;2023-09-19T06:09:40;99188.09;;;17.38
40199;BMP280;25906;43.536;26.068;2023-09-19T06:12:25;99185.03;;;17.54
40199;BMP280;25906;43.536;26.068;2023-09-19T06:25:54;99201.34;;;18.24
40199;BMP280;25906;43.536;26.068;2023-09-19T06:28:40;99193.00;;;18.37
40199;BMP280;25906;43.536;26.068;2023-09-19T06:31:26;99195.38;;;18.49
40199;BMP280;25906;43.536;26.068;2023-09-19T06:34:11;99191.03;;;18.52
40199;BMP280;25906;43.536;26.068;2023-09-19T06:37:00;99186.44;;;18.72
40199;BMP280;25906;43.536;26.068;2023-09-19T06:39:46;99184.44;;;18.87
40199;BMP280;25906;43.536;26.068;2023-09-19T06:42:34;99181.78;;;19.08
40199;BMP280;25906;43.536;26.068;2023-09-19T06:45:22;99179.56;;;19.26
40199;BMP280;25906;43.536;26.068;2023-09-19T06:48:07;99183.13;;;19.38
40199;BMP280;25906;43.536;26.068;2023-09-19T06:50:58;99186.72;;;19.55
40199;BMP280;25906;43.536;26.068;2023-09-19T06:53:46;99187.59;;;19.72
40199;BMP280;25906;43.536;26.068;2023-09-19T06:56:31;99189.06;;;19.73
40199;BMP280;25906;43.536;26.068;2023-09-19T06:59:18;99185.97;;;19.80
40199;BMP280;25906;43.536;26.068;2023-09-19T07:02:03;99186.84;;;19.97
40199;BMP280;25906;43.536;26.068;2023-09-19T07:04:51;99183.31;;;20.17
40199;BMP280;25906;43.536;26.068;2023-09-19T07:07:36;99178.47;;;20.21
40199;BMP280;25906;43.536;26.068;2023-09-19T07:10:22;99177.84;;;20.37
40199;BMP280;25906;43.536;26.068;2023-09-19T07:13:09;99170.56;;;20.54
40199;BMP280;25906;43.536;26.068;2023-09-19T07:15:58;99183.81;;;20.58
40199;BMP280;25906;43.536;26.068;2023-09-19T07:18:44;99184.44;;;20.84
40199;BMP280;25906;43.536;26.068;2023-09-19T07:21:30;99179.59;;;20.99
40199;BMP280;25906;43.536;26.068;2023-09-19T07:24:17;99183.78;;;21.00
40199;BMP280;25906;43.536;26.068;2023-09-19T07:27:03;99186.97;;;21.10
40199;BMP280;25906;43.536;26.068;2023-09-19T07:29:50;99191.19;;;21.27
40199;BMP280;25906;43.536;26.068;2023-09-19T07:32:36;99178.00;;;21.41
40199;BMP280;25906;43.536;26.068;2023-09-19T07:35:21;99183.19;;;21.72
40199;BMP280;25906;43.536;26.068;2023-09-19T07:38:07;99176.56;;;21.78
40199;BMP280;25906;43.536;26.068;2023-09-19T07:40:59;99184.13;;;22.13
40199;BMP280;25906;43.536;26.068;2023-09-19T07:43:45;99178.44;;;22.39
40199;BMP280;25906;43.536;26.068;2023-09-19T07:46:30;99167.09;;;22.63
40199;BMP280;25906;43.536;26.068;2023-09-19T07:49:16;99164.38;;;22.63
40199;BMP280;25906;43.536;26.068;2023-09-19T07:52:02;99155.03;;;22.69
40199;BMP280;25906;43.536;26.068;2023-09-19T07:54:48;99146.75;;;22.56
40199;BMP280;25906;43.536;26.068;2023-09-19T07:57:35;99158.69;;;22.72
40199;BMP280;25906;43.536;26.068;2023-09-19T08:00:21;99152.03;;;22.84
40199;BMP280;25906;43.536;26.068;2023-09-19T08:03:06;99146.19;;;22.69
40199;BMP280;25906;43.536;26.068;2023-09-19T08:05:56;99145.97;;;23.13
40199;BMP280;25906;43.536;26.068;2023-09-19T08:08:42;99140.72;;;23.26
40199;BMP280;25906;43.536;26.068;2023-09-19T08:11:28;99139.00;;;23.23
40199;BMP280;25906;43.536;26.068;2023-09-19T08:14:16;99137.44;;;23.39
40199;BMP280;25906;43.536;26.068;2023-09-19T08:17:01;99131.09;;;23.60
40199;BMP280;25906;43.536;26.068;2023-09-19T08:19:47;99134.63;;;23.79
40199;BMP280;25906;43.536;26.068;2023-09-19T08:22:34;99128.50;;;24.03
40199;BMP280;25906;43.536;26.068;2023-09-19T08:25:21;99132.16;;;24.06
40199;BMP280;25906;43.536;26.068;2023-09-19T08:28:07;99121.63;;;24.21
40199;BMP280;25906;43.536;26.068;2023-09-19T08:30:53;99121.22;;;24.54
40199;BMP280;25906;43.536;26.068;2023-09-19T08:33:40;99113.59;;;24.53
40199;BMP280;25906;43.536;26.068;2023-09-19T08:36:25;99107.13;;;24.61
40199;BMP280;25906;43.536;26.068;2023-09-19T08:39:11;99110.31;;;24.78
40199;BMP280;25906;43.536;26.068;2023-09-19T08:42:00;99106.66;;;25.07
40199;BMP280;25906;43.536;26.068;2023-09-19T08:44:46;99103.50;;;25.22
40199;BMP280;25906;43.536;26.068;2023-09-19T08:47:34;99107.56;;;25.29
40199;BMP280;25906;43.536;26.068;2023-09-19T08:50:29;99108.50;;;25.31
40199;BMP280;25906;43.536;26.068;2023-09-19T08:53:21;99103.91;;;25.26
40199;BMP280;25906;43.536;26.068;2023-09-19T08:56:12;99098.94;;;25.56
40199;BMP280;25906;43.536;26.068;2023-09-19T08:59:02;99091.75;;;25.59
40199;BMP280;25906;43.536;26.068;2023-09-19T09:01:48;99092.28;;;25.70
40199;BMP280;25906;43.536;26.068;2023-09-19T09:04:36;99089.91;;;25.54
40199;BMP280;25906;43.536;26.068;2023-09-19T09:07:24;99088.31;;;25.45
40199;BMP280;25906;43.536;26.068;2023-09-19T09:10:09;99085.16;;;25.54
40199;BMP280;25906;43.536;26.068;2023-09-19T09:12:55;99078.63;;;25.76
40199;BMP280;25906;43.536;26.068;2023-09-19T09:15:41;99080.47;;;25.94
40199;BMP280;25906;43.536;26.068;2023-09-19T09:18:28;99076.50;;;26.42
40199;BMP280;25906;43.536;26.068;2023-09-19T09:21:15;99076.19;;;26.45
40199;BMP280;25906;43.536;26.068;2023-09-19T09:24:29;99078.47;;;26.54
40199;BMP280;25906;43.536;26.068;2023-09-19T09:27:15;99062.53;;;26.38
40199;BMP280;25906;43.536;26.068;2023-09-19T09:30:02;99075.59;;;26.60
40199;BMP280;25906;43.536;26.068;2023-09-19T09:33:09;99072.59;;;26.50
40199;BMP280;25906;43.536;26.068;2023-09-19T09:35:58;99073.28;;;26.85
40199;BMP280;25906;43.536;26.068;2023-09-19T09:38:48;99071.50;;;26.67
40199;BMP280;25906;43.536;26.068;2023-09-19T09:41:40;99062.22;;;26.83
40199;BMP280;25906;43.536;26.068;2023-09-19T09:44:25;99062.50;;;26.92
40199;BMP280;25906;43.536;26.068;2023-09-19T09:47:12;99055.38;;;27.10
40199;BMP280;25906;43.536;26.068;2023-09-19T09:50:14;99054.28;;;26.85
40199;BMP280;25906;43.536;26.068;2023-09-19T09:53:03;99055.38;;;27.10
40199;BMP280;25906;43.536;26.068;2023-09-19T09:58:51;99049.84;;;27.51
40199;BMP280;25906;43.536;26.068;2023-09-19T10:01:47;99052.28;;;27.34
40199;BMP280;25906;43.536;26.068;2023-09-19T10:04:34;99046.03;;;27.54
40199;BMP280;25906;43.536;26.068;2023-09-19T10:07:31;99041.47;;;27.92
40199;BMP280;25906;43.536;26.068;2023-09-19T10:10:42;99040.03;;;27.84
40199;BMP280;25906;43.536;26.068;2023-09-19T10:13:29;99041.97;;;27.76
40199;BMP280;25906;43.536;26.068;2023-09-19T10:16:16;99042.44;;;28.02
40199;BMP280;25906;43.536;26.068;2023-09-19T10:19:07;99036.63;;;27.98
40199;BMP280;25906;43.536;26.068;2023-09-19T10:21:54;99034.94;;;27.88
40199;BMP280;25906;43.536;26.068;2023-09-19T10:24:43;99036.50;;;28.57
40199;BMP280;25906;43.536;26.068;2023-09-19T10:27:30;99029.03;;;28.27
40199;BMP280;25906;43.536;26.068;2023-09-19T10:30:23;99039.66;;;27.44
40199;BMP280;25906;43.536;26.068;2023-09-19T10:33:09;99025.34;;;27.44
40199;BMP280;25906;43.536;26.068;2023-09-19T10:35:55;99035.50;;;27.22
40199;BMP280;25906;43.536;26.068;2023-09-19T10:38:45;99030.75;;;26.67
40199;BMP280;25906;43.536;26.068;2023-09-19T10:41:32;99028.94;;;26.62
40199;BMP280;25906;43.536;26.068;2023-09-19T10:44:32;99034.00;;;26.86
40199;BMP280;25906;43.536;26.068;2023-09-19T10:47:17;99034.63;;;27.56
40199;BMP280;25906;43.536;26.068;2023-09-19T10:50:06;99031.16;;;27.98
40199;BMP280;25906;43.536;26.068;2023-09-19T10:52:53;99022.66;;;28.10
40199;BMP280;25906;43.536;26.068;2023-09-19T10:55:53;99023.44;;;28.48
40199;BMP280;25906;43.536;26.068;2023-09-19T10:58:39;99020.53;;;28.31
40199;BMP280;25906;43.536;26.068;2023-09-19T11:04:31;99014.88;;;28.21
40199;BMP280;25906;43.536;26.068;2023-09-19T11:07:17;99014.13;;;28.13
40199;BMP280;25906;43.536;26.068;2023-09-19T11:10:02;99000.31;;;29.02
40199;BMP280;25906;43.536;26.068;2023-09-19T11:12:49;99000.69;;;28.98
40199;BMP280;25906;43.536;26.068;2023-09-19T11:27:14;98993.03;;;29.51
40199;BMP280;25906;43.536;26.068;2023-09-19T11:30:26;98990.16;;;29.49
40199;BMP280;25906;43.536;26.068;2023-09-19T11:33:31;98989.22;;;29.00
40199;BMP280;25906;43.536;26.068;2023-09-19T11:36:18;98984.13;;;28.96
40199;BMP280;25906;43.536;26.068;2023-09-19T11:39:25;98987.56;;;29.12
40199;BMP280;25906;43.536;26.068;2023-09-19T11:42:44;98984.44;;;29.23
40199;BMP280;25906;43.536;26.068;2023-09-19T11:48:47;98979.09;;;28.85
40199;BMP280;25906;43.536;26.068;2023-09-19T11:51:40;98970.53;;;28.89
40199;BMP280;25906;43.536;26.068;2023-09-19T11:54:27;98964.41;;;28.43
40199;BMP280;25906;43.536;26.068;2023-09-19T11:57:20;98977.47;;;28.07
40199;BMP280;25906;43.536;26.068;2023-09-19T12:00:07;98956.97;;;28.13
40199;BMP280;25906;43.536;26.068;2023-09-19T12:02:58;98972.78;;;28.45
40199;BMP280;25906;43.536;26.068;2023-09-19T12:05:47;98967.88;;;28.28
40199;BMP280;25906;43.536;26.068;2023-09-19T12:08:33;98971.31;;;27.98
40199;BMP280;25906;43.536;26.068;2023-09-19T12:11:19;98954.94;;;27.83
40199;BMP280;25906;43.536;26.068;2023-09-19T12:14:06;98954.56;;;27.79
40199;BMP280;25906;43.536;26.068;2023-09-19T12:16:57;98958.78;;;27.95
40199;BMP280;25906;43.536;26.068;2023-09-19T12:19:52;98928.47;;;27.84
40199;BMP280;25906;43.536;26.068;2023-09-19T12:22:41;98959.13;;;27.34
40199;BMP280;25906;43.536;26.068;2023-09-19T12:25:41;98955.22;;;26.86
40199;BMP280;25906;43.536;26.068;2023-09-19T12:28:30;98947.50;;;26.97
40199;BMP280;25906;43.536;26.068;2023-09-19T12:31:15;98947.41;;;26.82
40199;BMP280;25906;43.536;26.068;2023-09-19T12:34:03;98945.16;;;26.94
40199;BMP280;25906;43.536;26.068;2023-09-19T12:37:06;98942.13;;;27.05
40199;BMP280;25906;43.536;26.068;2023-09-19T12:40:09;98948.00;;;26.88
40199;BMP280;25906;43.536;26.068;2023-09-19T12:43:02;98948.63;;;26.74
40199;BMP280;25906;43.536;26.068;2023-09-19T12:45:49;98949.34;;;26.74
40199;BMP280;25906;43.536;26.068;2023-09-19T12:48:35;98944.16;;;26.56
40199;BMP280;25906;43.536;26.068;2023-09-19T12:51:23;98943.53;;;26.98
40199;BMP280;25906;43.536;26.068;2023-09-19T12:54:11;98941.75;;;27.37
40199;BMP280;25906;43.536;26.068;2023-09-19T12:56:56;98936.50;;;27.46
40199;BMP280;25906;43.536;26.068;2023-09-19T12:59:43;98937.66;;;27.58
40199;BMP280;25906;43.536;26.068;2023-09-19T13:02:29;98941.47;;;27.63
40199;BMP280;25906;43.536;26.068;2023-09-19T13:05:14;98940.38;;;27.58
40199;BMP280;25906;43.536;26.068;2023-09-19T13:08:20;98939.63;;;27.50
40199;BMP280;25906;43.536;26.068;2023-09-19T13:11:14;98933.72;;;27.89
40199;BMP280;25906;43.536;26.068;2023-09-19T13:14:22;98939.16;;;27.82
40199;BMP280;25906;43.536;26.068;2023-09-19T13:17:13;98937.00;;;28.33
40199;BMP280;25906;43.536;26.068;2023-09-19T13:20:02;98933.22;;;28.29
40199;BMP280;25906;43.536;26.068;2023-09-19T13:22:48;98931.38;;;27.93
40199;BMP280;25906;43.536;26.068;2023-09-19T13:25:40;98926.28;;;27.75
40199;BMP280;25906;43.536;26.068;2023-09-19T13:28:25;98930.09;;;27.87
40199;BMP280;25906;43.536;26.068;2023-09-19T13:31:11;98928.28;;;27.97
40199;BMP280;25906;43.536;26.068;2023-09-19T13:33:57;98927.13;;;27.70
40199;BMP280;25906;43.536;26.068;2023-09-19T13:36:42;98926.63;;;27.71
40199;BMP280;25906;43.536;26.068;2023-09-19T13:39:28;98932.59;;;27.77
40199;BMP280;25906;43.536;26.068;2023-09-19T13:42:14;98918.97;;;27.70
40199;BMP280;25906;43.536;26.068;2023-09-19T13:45:04;98921.56;;;27.90
40199;BMP280;25906;43.536;26.068;2023-09-19T13:47:50;98920.50;;;28.09
40199;BMP280;25906;43.536;26.068;2023-09-19T13:50:35;98920.25;;;27.69
40199;BMP280;25906;43.536;26.068;2023-09-19T13:53:22;98919.75;;;27.78
40199;BMP280;25906;43.536;26.068;2023-09-19T13:56:07;98911.56;;;27.78
40199;BMP280;25906;43.536;26.068;2023-09-19T13:58:54;98904.66;;;27.69
40199;BMP280;25906;43.536;26.068;2023-09-19T14:01:39;98897.25;;;27.85
40199;BMP280;25906;43.536;26.068;2023-09-19T14:04:25;98890.75;;;27.95
40199;BMP280;25906;43.536;26.068;2023-09-19T14:07:10;98897.44;;;28.10
40199;BMP280;25906;43.536;26.068;2023-09-19T14:09:59;98891.47;;;28.03
40199;BMP280;25906;43.536;26.068;2023-09-19T14:12:45;98896.81;;;27.43
40199;BMP280;25906;43.536;26.068;2023-09-19T14:15:30;98889.91;;;27.35
40199;BMP280;25906;43.536;26.068;2023-09-19T14:18:17;98896.50;;;27.11
40199;BMP280;25906;43.536;26.068;2023-09-19T14:21:06;98898.72;;;27.20
40199;BMP280;25906;43.536;26.068;2023-09-19T14:23:56;98895.41;;;27.14
40199;BMP280;25906;43.536;26.068;2023-09-19T14:26:41;98897.81;;;27.17
40199;BMP280;25906;43.536;26.068;2023-09-19T14:29:27;98897.34;;;26.98
40199;BMP280;25906;43.536;26.068;2023-09-19T14:32:13;98895.22;;;27.04
40199;BMP280;25906;43.536;26.068;2023-09-19T14:34:58;98900.63;;;26.97
40199;BMP280;25906;43.536;26.068;2023-09-19T14:37:44;98897.66;;;26.87
40199;BMP280;25906;43.536;26.068;2023-09-19T14:40:30;98900.53;;;26.89
40199;BMP280;25906;43.536;26.068;2023-09-19T14:43:16;98896.16;;;26.79
40199;BMP280;25906;43.536;26.068;2023-09-19T14:46:05;98902.81;;;26.70
40199;BMP280;25906;43.536;26.068;2023-09-19T14:48:53;98898.53;;;26.54
40199;BMP280;25906;43.536;26.068;2023-09-19T14:51:38;98894.22;;;26.59
40199;BMP280;25906;43.536;26.068;2023-09-19T14:54:30;98893.50;;;26.66
40199;BMP280;25906;43.536;26.068;2023-09-19T14:57:15;98899.00;;;26.45
40199;BMP280;25906;43.536;26.068;2023-09-19T15:00:01;98895.91;;;26.41
40199;BMP280;25906;43.536;26.068;2023-09-19T15:02:50;98899.09;;;26.32
40199;BMP280;25906;43.536;26.068;2023-09-19T15:05:36;98896.44;;;26.19
40199;BMP280;25906;43.536;26.068;2023-09-19T15:08:21;98897.50;;;26.16
40199;BMP280;25906;43.536;26.068;2023-09-19T15:11:08;98898.56;;;26.13
40199;BMP280;25906;43.536;26.068;2023-09-19T15:13:53;98896.19;;;26.09
40199;BMP280;25906;43.536;26.068;2023-09-19T15:16:39;98896.59;;;26.13
40199;BMP280;25906;43.536;26.068;2023-09-19T15:19:25;98906.44;;;26.03
40199;BMP280;25906;43.536;26.068;2023-09-19T15:22:11;98898.50;;;26.05
40199;BMP280;25906;43.536;26.068;2023-09-19T15:24:58;98904.66;;;26.06
40199;BMP280;25906;43.536;26.068;2023-09-19T15:27:43;98901.41;;;26.07
40199;BMP280;25906;43.536;26.068;2023-09-19T15:30:30;98897.09;;;25.91
40199;BMP280;25906;43.536;26.068;2023-09-19T15:33:15;98900.78;;;25.80
40199;BMP280;25906;43.536;26.068;2023-09-19T15:36:09;98902.28;;;25.68
40199;BMP280;25906;43.536;26.068;2023-09-19T15:39:08;98901.25;;;25.58
40199;BMP280;25906;43.536;26.068;2023-09-19T15:41:56;98897.94;;;25.52
40199;BMP280;25906;43.536;26.068;2023-09-19T15:44:42;98902.25;;;25.35
40199;BMP280;25906;43.536;26.068;2023-09-19T15:47:29;98907.59;;;25.27
40199;BMP280;25906;43.536;26.068;2023-09-19T15:50:16;98902.38;;;25.16
40199;BMP280;25906;43.536;26.068;2023-09-19T15:53:02;98903.31;;;25.05
40199;BMP280;25906;43.536;26.068;2023-09-19T15:55:47;98900.41;;;24.90
40199;BMP280;25906;43.536;26.068;2023-09-19T15:58:33;98895.69;;;24.91
40199;BMP280;25906;43.536;26.068;2023-09-19T16:01:19;98895.91;;;24.93
40199;BMP280;25906;43.536;26.068;2023-09-19T16:04:05;98896.63;;;24.80
40199;BMP280;25906;43.536;26.068;2023-09-19T16:06:50;98898.09;;;24.81
40199;BMP280;25906;43.536;26.068;2023-09-19T16:09:37;98898.72;;;24.74
40199;BMP280;25906;43.536;26.068;2023-09-19T16:12:22;98899.31;;;24.67
40199;BMP280;25906;43.536;26.068;2023-09-19T16:15:08;98903.28;;;24.66
40199;BMP280;25906;43.536;26.068;2023-09-19T16:17:56;98901.28;;;24.54
40199;BMP280;25906;43.536;26.068;2023-09-19T16:20:41;98912.84;;;24.54
40199;BMP280;25906;43.536;26.068;2023-09-19T16:23:27;98906.69;;;24.54
40199;BMP280;25906;43.536;26.068;2023-09-19T16:26:13;98904.09;;;24.48
40199;BMP280;25906;43.536;26.068;2023-09-19T16:28:58;98904.56;;;24.33
40199;BMP280;25906;43.536;26.068;2023-09-19T16:31:47;98898.09;;;24.23
40199;BMP280;25906;43.536;26.068;2023-09-19T16:34:33;98902.84;;;24.17
40199;BMP280;25906;43.536;26.068;2023-09-19T16:37:18;98907.50;;;24.17